Time;durP1;ratioP1;P1;durP2;ratioP2;P2;SDS_P1;SDS_P2;PMS_P1;PMS_P2;Temp;Humidity;BMP_temperature;BMP_pressure;BME280_temperature;BME280_humidity;BME280_pressure;Samples;Min_cycle;Max_cycle;Signal;HPM_P1;HPM_P2
2023/01/27 00:00:53;;;;;;;8.77;4.63;;;-1.10;99.90;;;;;;5064455;28;20451;-53
2023/01/27 00:03:19;;;;;;;11.33;5.03;;;-1.10;99.90;;;;;;5070633;28;20170;-56
2023/01/27 00:05:46;;;;;;;9.00;5.30;;;-1.10;99.90;;;;;;5067327;28;20438;-59
2023/01/27 00:08:12;;;;;;;7.87;4.67;;;-1.10;99.90;;;;;;5055517;28;20588;-58
2023/01/27 00:10:38;;;;;;;8.60;5.27;;;-1.10;99.90;;;;;;5041887;28;20458;-56
2023/01/27 00:15:48;;;;;;;11.37;5.97;;;-1.10;99.90;;;;;;5045613;28;20502;-55
2023/01/27 00:18:14;;;;;;;8.03;4.83;;;-1.10;99.90;;;;;;5049938;28;20443;-55
2023/01/27 00:26:13;;;;;;;7.77;4.10;;;-1.10;99.90;;;;;;5051882;28;20461;-55
2023/01/27 00:28:40;;;;;;;8.70;4.43;;;-1.10;99.90;;;;;;5049058;28;20431;-55
2023/01/27 00:33:54;;;;;;;12.17;5.30;;;-1.20;99.90;;;;;;5045320;28;20452;-58
2023/01/27 00:36:21;;;;;;;13.77;5.73;;;-1.20;99.90;;;;;;5049780;28;21030;-54
2023/01/27 00:38:47;;;;;;;9.20;5.27;;;-1.20;99.90;;;;;;5033725;28;20439;-54
2023/01/27 00:41:22;;;;;;;6.40;4.90;;;-1.20;99.90;;;;;;5046864;28;20891;-57
2023/01/27 00:43:52;;;;;;;7.03;5.23;;;-1.30;99.90;;;;;;5045567;28;20806;-54
2023/01/27 00:46:19;;;;;;;12.77;6.57;;;-1.30;99.90;;;;;;5047338;28;20427;-54
2023/01/27 00:48:46;;;;;;;7.30;4.70;;;-1.20;99.90;;;;;;5046588;28;20487;-56
2023/01/27 00:51:12;;;;;;;10.33;5.83;;;-1.20;99.90;;;;;;5047758;28;20455;-53
2023/01/27 00:53:38;;;;;;;9.03;5.23;;;-1.20;99.90;;;;;;5047997;28;20470;-54
2023/01/27 00:56:04;;;;;;;9.53;5.10;;;-1.20;99.90;;;;;;5049606;28;20829;-55
2023/01/27 00:58:30;;;;;;;9.20;5.30;;;-1.20;99.90;;;;;;5058112;28;20442;-57
2023/01/27 01:00:58;;;;;;;10.27;5.77;;;-1.20;99.90;;;;;;5063629;28;20447;-52
2023/01/27 01:03:25;;;;;;;8.97;5.33;;;-1.20;99.90;;;;;;5063401;28;20462;-57
2023/01/27 01:05:51;;;;;;;8.80;4.97;;;-1.20;99.90;;;;;;5065724;28;20423;-56
2023/01/27 01:08:17;;;;;;;8.77;5.37;;;-1.20;99.90;;;;;;5042152;28;20431;-52
2023/01/27 01:10:42;;;;;;;7.83;4.83;;;-1.20;99.90;;;;;;5042591;28;20192;-53
2023/01/27 01:13:10;;;;;;;8.30;4.40;;;-1.10;99.90;;;;;;5046910;28;20579;-54
2023/01/27 01:15:37;;;;;;;5.60;3.97;;;-1.10;99.90;;;;;;5043734;28;20229;-56
2023/01/27 01:18:03;;;;;;;5.80;4.23;;;-1.10;99.90;;;;;;5037903;28;20507;-53
2023/01/27 01:20:29;;;;;;;7.73;4.90;;;-1.10;99.90;;;;;;5046244;28;20539;-53
2023/01/27 01:22:56;;;;;;;7.60;4.87;;;-1.10;99.90;;;;;;5047874;28;20991;-53
2023/01/27 01:25:21;;;;;;;7.97;4.80;;;-1.10;99.90;;;;;;5046270;28;20178;-53
2023/01/27 01:27:47;;;;;;;12.10;5.87;;;-1.20;99.90;;;;;;5045533;28;20437;-55
2023/01/27 01:30:12;;;;;;;8.07;5.07;;;-1.20;99.90;;;;;;5047238;28;20194;-55
2023/01/27 01:32:38;;;;;;;8.23;4.60;;;-1.10;99.90;;;;;;5045682;28;20228;-55
2023/01/27 01:35:04;;;;;;;7.23;4.43;;;-1.20;99.90;;;;;;5062980;28;20203;-53
2023/01/27 01:37:30;;;;;;;6.80;4.67;;;-1.20;99.90;;;;;;5069842;28;20260;-58
2023/01/27 01:39:55;;;;;;;8.70;5.13;;;-1.20;99.90;;;;;;5069776;28;20432;-57
2023/01/27 01:42:21;;;;;;;9.40;5.40;;;-1.20;99.90;;;;;;5059261;28;20684;-53
2023/01/27 01:44:46;;;;;;;9.73;5.43;;;-1.20;99.90;;;;;;5049185;28;20236;-52
2023/01/27 01:47:16;;;;;;;10.30;5.73;;;-1.20;99.90;;;;;;5050837;28;20191;-56
2023/01/27 01:49:44;;;;;;;8.33;4.80;;;-1.20;99.90;;;;;;5062328;28;20177;-56
2023/01/27 01:52:16;;;;;;;9.03;4.80;;;-1.20;99.90;;;;;;5047008;28;20455;-54
2023/01/27 01:54:55;;;;;;;6.53;4.57;;;-1.30;99.90;;;;;;5047470;28;20526;-54
2023/01/27 01:57:25;;;;;;;8.50;4.77;;;-1.30;99.90;;;;;;5049624;28;20467;-54
2023/01/27 02:00:05;;;;;;;9.20;5.50;;;-1.30;99.90;;;;;;5064916;28;20424;-56
2023/01/27 02:02:32;;;;;;;7.07;4.40;;;-1.40;99.90;;;;;;5066372;28;20452;-56
2023/01/27 02:05:05;;;;;;;9.07;5.10;;;-1.40;99.90;;;;;;5062144;28;20495;-56
2023/01/27 02:07:38;;;;;;;8.40;4.50;;;-1.40;99.90;;;;;;5065158;28;20511;-56
2023/01/27 02:10:05;;;;;;;8.27;4.70;;;-1.40;99.90;;;;;;5068944;28;20435;-56
2023/01/27 02:12:31;;;;;;;7.77;4.63;;;-1.40;99.90;;;;;;5068145;28;20477;-57
2023/01/27 02:14:57;;;;;;;8.17;4.83;;;-1.40;99.90;;;;;;5069903;28;20182;-57
2023/01/27 02:17:23;;;;;;;11.30;5.23;;;-1.30;99.90;;;;;;5066758;28;20223;-53
2023/01/27 02:20:08;;;;;;;11.20;6.00;;;-1.40;99.90;;;;;;5026232;28;20985;-53
2023/01/27 02:23:12;;;;;;;7.97;4.87;;;-1.40;99.90;;;;;;5043230;28;20732;-54
2023/01/27 02:26:01;;;;;;;12.30;5.47;;;-1.40;99.90;;;;;;4959845;28;20432;-53
2023/01/27 02:28:29;;;;;;;8.90;5.97;;;-1.30;99.90;;;;;;4959632;28;20535;-52
2023/01/27 02:30:55;;;;;;;10.33;5.40;;;-1.30;99.90;;;;;;5017288;28;20454;-54
2023/01/27 02:33:21;;;;;;;13.63;5.60;;;-1.40;99.90;;;;;;5035042;28;20460;-52
2023/01/27 02:35:59;;;;;;;8.00;5.00;;;-1.40;99.90;;;;;;5049861;28;20494;-51
2023/01/27 02:38:28;;;;;;;10.30;6.03;;;-1.40;99.90;;;;;;5061209;28;20573;-53
2023/01/27 02:40:58;;;;;;;10.20;5.63;;;-1.40;99.90;;;;;;5051618;28;20460;-55
2023/01/27 02:43:23;;;;;;;8.13;5.20;;;-1.50;99.90;;;;;;5046187;28;20817;-53
2023/01/27 02:45:49;;;;;;;12.73;5.80;;;-1.50;99.90;;;;;;5049022;28;21016;-53
2023/01/27 02:48:15;;;;;;;14.77;5.73;;;-1.50;99.90;;;;;;5034423;28;20177;-52
2023/01/27 02:50:40;;;;;;;12.67;6.70;;;-1.50;99.90;;;;;;5050838;28;20223;-53
2023/01/27 02:53:06;;;;;;;15.00;7.40;;;-1.50;99.90;;;;;;5066402;28;20285;-56
2023/01/27 02:55:32;;;;;;;11.27;6.10;;;-1.50;99.90;;;;;;5065411;28;20208;-56
2023/01/27 02:57:57;;;;;;;10.50;6.40;;;-1.50;99.90;;;;;;5072453;28;20183;-58
2023/01/27 03:00:23;;;;;;;11.60;6.20;;;-1.50;99.90;;;;;;5062379;28;20556;-53
2023/01/27 03:02:49;;;;;;;9.13;5.50;;;-1.50;99.90;;;;;;5050816;28;20428;-53
2023/01/27 03:05:14;;;;;;;15.23;6.93;;;-1.50;99.90;;;;;;5048443;28;20256;-53
2023/01/27 03:07:41;;;;;;;12.80;5.87;;;-1.50;99.90;;;;;;5047658;28;20275;-53
2023/01/27 03:10:07;;;;;;;10.07;5.90;;;-1.50;99.90;;;;;;5048533;28;20577;-54
2023/01/27 03:12:33;;;;;;;14.80;7.47;;;-1.50;99.90;;;;;;5051688;28;20518;-53
2023/01/27 03:20:27;;;;;;;10.80;6.27;;;-1.50;99.90;;;;;;5061864;28;20462;-63
2023/01/27 03:22:53;;;;;;;9.50;5.40;;;-1.50;99.90;;;;;;5076137;28;20488;-56
2023/01/27 03:25:18;;;;;;;9.03;5.93;;;-1.50;99.90;;;;;;5052790;28;20255;-53
2023/01/27 03:27:44;;;;;;;13.20;6.30;;;-1.50;99.90;;;;;;5053154;28;20240;-53
2023/01/27 03:30:10;;;;;;;14.50;6.07;;;-1.50;99.90;;;;;;5049744;28;20238;-54
2023/01/27 03:32:36;;;;;;;12.47;5.10;;;-1.50;99.90;;;;;;5048708;28;20604;-54
2023/01/27 03:35:02;;;;;;;11.13;6.73;;;-1.40;99.90;;;;;;5057670;28;20458;-54
2023/01/27 03:48:34;;;;;;;11.10;6.37;;;-1.50;99.90;;;;;;5058597;28;20606;-51
2023/01/27 03:51:02;;;;;;;9.93;6.20;;;-1.40;99.90;;;;;;5052012;28;20922;-54
2023/01/27 03:53:27;;;;;;;20.00;6.90;;;-1.40;99.90;;;;;;5062675;28;20470;-54
2023/01/27 03:55:53;;;;;;;12.43;6.30;;;-1.40;99.90;;;;;;5063187;28;20458;-56
2023/01/27 03:58:21;;;;;;;9.33;5.20;;;-1.40;99.90;;;;;;5066922;28;20234;-55
2023/01/27 04:00:51;;;;;;;12.20;5.80;;;-1.40;99.90;;;;;;5066229;28;20209;-56
2023/01/27 04:08:50;;;;;;;10.10;5.43;;;-1.50;99.90;;;;;;5071045;28;20505;-57
2023/01/27 04:14:02;;;;;;;16.27;5.60;;;-1.50;99.90;;;;;;5043712;28;20803;-53
2023/01/27 04:16:29;;;;;;;6.90;4.77;;;-1.50;99.90;;;;;;5048736;28;20466;-54
2023/01/27 04:18:55;;;;;;;11.90;5.77;;;-1.50;99.90;;;;;;5043826;28;20766;-55
2023/01/27 04:21:21;;;;;;;9.90;5.63;;;-1.50;99.90;;;;;;5045058;28;20460;-54
2023/01/27 04:23:47;;;;;;;9.53;5.63;;;-1.50;99.90;;;;;;5048073;28;20435;-55
2023/01/27 04:26:13;;;;;;;13.87;6.87;;;-1.50;99.90;;;;;;5041293;28;20823;-54
2023/01/27 04:28:38;;;;;;;12.43;7.20;;;-1.50;99.90;;;;;;5048520;28;20267;-54
2023/01/27 04:31:04;;;;;;;11.83;5.93;;;-1.50;99.90;;;;;;5043969;28;20209;-54
2023/01/27 04:33:29;;;;;;;14.10;6.03;;;-1.50;99.90;;;;;;5049154;28;20314;-56
2023/01/27 04:35:55;;;;;;;14.27;6.20;;;-1.50;99.90;;;;;;5042913;28;20288;-54
2023/01/27 04:38:21;;;;;;;13.53;6.77;;;-1.50;99.90;;;;;;5045416;28;20185;-55
2023/01/27 04:40:47;;;;;;;9.00;5.40;;;-1.40;99.90;;;;;;5057200;28;20205;-53
2023/01/27 04:43:13;;;;;;;11.43;6.30;;;-1.40;99.90;;;;;;5048207;28;20173;-54
2023/01/27 04:45:38;;;;;;;15.00;7.80;;;-1.50;99.90;;;;;;5053659;28;20498;-54
2023/01/27 04:48:05;;;;;;;11.73;6.17;;;-1.50;99.90;;;;;;5050307;28;20200;-55
2023/01/27 04:50:31;;;;;;;12.93;6.87;;;-1.50;99.90;;;;;;5045518;28;20210;-56
2023/01/27 04:52:57;;;;;;;16.30;6.33;;;-1.50;99.90;;;;;;5021812;28;20477;-54
2023/01/27 04:55:22;;;;;;;14.27;6.73;;;-1.40;99.90;;;;;;5054077;28;20840;-55
2023/01/27 04:57:48;;;;;;;12.33;7.13;;;-1.40;99.90;;;;;;5049806;28;20233;-55
2023/01/27 05:00:14;;;;;;;13.87;6.57;;;-1.40;99.90;;;;;;5055140;28;20270;-57
2023/01/27 05:02:40;;;;;;;9.37;5.57;;;-1.40;99.90;;;;;;5064415;28;20201;-58
2023/01/27 05:05:06;;;;;;;7.73;5.40;;;-1.40;99.90;;;;;;5048452;28;20859;-58
2023/01/27 05:07:31;;;;;;;9.10;5.00;;;-1.30;99.90;;;;;;5018373;28;20182;-57
2023/01/27 05:09:57;;;;;;;10.20;5.90;;;-1.30;99.90;;;;;;5039832;28;20439;-55
2023/01/27 05:12:23;;;;;;;8.67;4.70;;;-1.30;99.90;;;;;;5033520;28;20181;-57
2023/01/27 05:14:49;;;;;;;8.93;4.97;;;-1.30;99.90;;;;;;5035258;28;20185;-56
2023/01/27 05:17:14;;;;;;;9.07;5.30;;;-1.30;99.90;;;;;;5011641;28;20217;-55
2023/01/27 05:19:40;;;;;;;8.87;4.70;;;-1.30;99.90;;;;;;5028696;28;20190;-54
2023/01/27 05:22:06;;;;;;;9.00;4.53;;;-1.30;99.90;;;;;;5039099;28;20198;-55
2023/01/27 05:24:31;;;;;;;10.37;5.10;;;-1.30;99.90;;;;;;5036175;28;20212;-57
2023/01/27 05:26:57;;;;;;;11.87;5.80;;;-1.30;99.90;;;;;;5041755;28;20291;-57
2023/01/27 05:29:23;;;;;;;9.03;5.03;;;-1.30;99.90;;;;;;5046436;28;20186;-56
2023/01/27 05:31:48;;;;;;;9.07;5.40;;;-1.30;99.90;;;;;;5045521;28;20212;-55
2023/01/27 05:34:15;;;;;;;7.70;4.40;;;-1.30;99.90;;;;;;5053954;28;20237;-57
2023/01/27 05:36:41;;;;;;;9.17;5.27;;;-1.30;99.90;;;;;;5067125;28;20210;-57
2023/01/27 05:39:09;;;;;;;11.83;4.43;;;-1.30;99.90;;;;;;5016385;28;20445;-56
2023/01/27 05:41:35;;;;;;;9.93;4.73;;;-1.30;99.90;;;;;;5038922;28;20699;-55
2023/01/27 05:44:01;;;;;;;9.43;4.77;;;-1.30;99.90;;;;;;5040916;28;20442;-56
2023/01/27 05:46:29;;;;;;;6.37;4.27;;;-1.30;99.90;;;;;;5041565;28;20776;-55
2023/01/27 05:48:57;;;;;;;5.83;3.53;;;-1.30;99.90;;;;;;5046136;28;20430;-55
2023/01/27 05:51:24;;;;;;;7.23;4.47;;;-1.30;99.90;;;;;;5044289;28;20497;-56
2023/01/27 05:53:51;;;;;;;7.70;3.90;;;-1.30;99.90;;;;;;5048065;28;20427;-55
2023/01/27 05:56:18;;;;;;;10.40;4.63;;;-1.30;99.90;;;;;;5040440;28;20459;-53
2023/01/27 05:58:44;;;;;;;6.73;4.20;;;-1.30;99.90;;;;;;5039475;28;20535;-54
2023/01/27 06:01:16;;;;;;;7.47;3.97;;;-1.30;99.90;;;;;;5039501;28;20451;-54
2023/01/27 06:03:43;;;;;;;8.13;4.40;;;-1.30;99.90;;;;;;5038442;28;20443;-54
2023/01/27 06:06:10;;;;;;;7.50;4.47;;;-1.30;99.90;;;;;;5028310;28;20958;-53
2023/01/27 06:08:37;;;;;;;9.27;4.63;;;-1.30;99.90;;;;;;5041812;28;20958;-55
2023/01/27 06:11:03;;;;;;;10.90;5.97;;;-1.30;99.90;;;;;;5044085;28;20455;-53
2023/01/27 06:13:30;;;;;;;6.57;3.63;;;-1.30;99.90;;;;;;5039691;28;20510;-54
2023/01/27 06:15:56;;;;;;;7.30;4.00;;;-1.20;99.90;;;;;;5041605;28;20463;-55
2023/01/27 06:18:22;;;;;;;5.87;4.03;;;-1.20;99.90;;;;;;5039891;28;20443;-52
2023/01/27 06:20:48;;;;;;;5.80;4.43;;;-1.20;99.90;;;;;;5035608;28;20193;-53
2023/01/27 06:23:15;;;;;;;9.10;4.40;;;-1.20;99.90;;;;;;5038716;28;20554;-53
2023/01/27 06:25:45;;;;;;;8.20;4.13;;;-1.20;99.90;;;;;;5039803;28;20269;-53
2023/01/27 06:28:11;;;;;;;8.03;5.17;;;-1.20;99.90;;;;;;5043018;28;20750;-53
2023/01/27 06:30:38;;;;;;;7.90;4.37;;;-1.20;99.90;;;;;;5042387;28;20984;-56
2023/01/27 06:33:05;;;;;;;11.57;4.90;;;-1.20;99.90;;;;;;5042141;28;20423;-56
2023/01/27 06:35:31;;;;;;;6.40;4.43;;;-1.20;99.90;;;;;;5041764;28;20807;-57
2023/01/27 06:37:58;;;;;;;8.17;4.50;;;-1.20;99.90;;;;;;5038171;28;20428;-54
2023/01/27 06:40:29;;;;;;;10.67;5.27;;;-1.20;99.90;;;;;;5043520;28;20965;-56
2023/01/27 06:42:55;;;;;;;9.90;5.60;;;-1.20;99.90;;;;;;5049299;28;20428;-56
2023/01/27 06:45:21;;;;;;;7.70;4.50;;;-1.20;99.90;;;;;;5066218;28;20423;-59
2023/01/27 06:47:57;;;;;;;20.67;8.33;;;-1.20;99.90;;;;;;5066656;28;20444;-63
2023/01/27 06:50:24;;;;;;;11.30;5.57;;;-1.20;99.90;;;;;;5065878;28;20457;-56
2023/01/27 06:52:51;;;;;;;8.57;5.30;;;-1.10;99.90;;;;;;5041571;28;20440;-58
2023/01/27 06:55:18;;;;;;;8.33;4.70;;;-1.10;99.90;;;;;;5040832;28;20452;-55
2023/01/27 06:57:47;;;;;;;9.20;5.27;;;-1.20;99.90;;;;;;5041313;28;20995;-53
2023/01/27 07:00:14;;;;;;;8.27;5.10;;;-1.10;99.90;;;;;;5039165;28;20420;-53
2023/01/27 07:02:39;;;;;;;5.67;4.40;;;-1.10;99.90;;;;;;5033508;28;20956;-55
2023/01/27 07:05:05;;;;;;;7.17;4.27;;;-1.20;99.90;;;;;;5038762;28;20440;-54
2023/01/27 07:07:31;;;;;;;7.33;4.10;;;-1.20;99.90;;;;;;5024338;28;20189;-54
2023/01/27 07:09:57;;;;;;;7.33;4.20;;;-1.20;99.90;;;;;;5044113;28;20212;-54
2023/01/27 07:12:23;;;;;;;8.60;4.23;;;-1.20;99.90;;;;;;5041124;28;20563;-55
2023/01/27 07:14:48;;;;;;;7.60;4.43;;;-1.20;99.90;;;;;;5018259;28;20438;-54
2023/01/27 07:17:14;;;;;;;9.20;5.03;;;-1.20;99.90;;;;;;5045647;28;20208;-55
2023/01/27 07:19:39;;;;;;;9.20;4.03;;;-1.20;99.90;;;;;;5048272;28;20275;-55
2023/01/27 07:22:05;;;;;;;8.33;4.60;;;-1.20;99.90;;;;;;5047000;28;20205;-53
2023/01/27 07:24:31;;;;;;;8.13;4.30;;;-1.20;99.90;;;;;;5042522;28;20200;-54
2023/01/27 07:26:56;;;;;;;7.53;4.90;;;-1.20;99.90;;;;;;5048309;28;20264;-55
2023/01/27 07:29:22;;;;;;;5.60;4.33;;;-1.20;99.90;;;;;;5050110;28;20188;-53
2023/01/27 07:31:48;;;;;;;8.83;4.60;;;-1.20;99.90;;;;;;5053832;28;20209;-53
2023/01/27 07:34:13;;;;;;;9.43;4.87;;;-1.20;99.90;;;;;;5049090;28;20192;-55
2023/01/27 07:36:39;;;;;;;7.17;4.33;;;-1.20;99.90;;;;;;5041370;28;20224;-55
2023/01/27 07:39:05;;;;;;;5.17;4.03;;;-1.20;99.90;;;;;;5043331;28;20189;-53
2023/01/27 07:41:30;;;;;;;9.70;5.50;;;-1.20;99.90;;;;;;5045501;28;20217;-53
2023/01/27 07:43:56;;;;;;;9.03;4.97;;;-1.20;99.90;;;;;;5040361;28;20560;-53
2023/01/27 07:46:21;;;;;;;7.47;4.73;;;-1.20;99.90;;;;;;5044095;28;20185;-56
2023/01/27 07:48:47;;;;;;;7.97;5.60;;;-1.20;99.90;;;;;;5067217;28;20189;-55
2023/01/27 07:51:13;;;;;;;9.17;4.60;;;-1.20;99.90;;;;;;5056961;28;20184;-56
2023/01/27 07:53:39;;;;;;;11.07;5.97;;;-1.20;99.90;;;;;;5070679;28;20178;-55
2023/01/27 07:56:10;;;;;;;9.30;5.13;;;-1.20;99.90;;;;;;5055303;28;20550;-54
2023/01/27 07:58:37;;;;;;;8.57;5.67;;;-1.20;99.90;;;;;;5027123;28;20420;-52
2023/01/27 08:01:10;;;;;;;10.40;6.10;;;-1.20;99.90;;;;;;5055641;28;20467;-54
2023/01/27 08:03:36;;;;;;;10.13;5.77;;;-1.20;99.90;;;;;;5062996;28;20551;-53
2023/01/27 08:06:07;;;;;;;11.10;6.20;;;-1.20;99.90;;;;;;5042558;28;20466;-52
2023/01/27 08:08:33;;;;;;;10.30;6.33;;;-1.20;99.90;;;;;;5021780;28;20921;-49
2023/01/27 08:11:04;;;;;;;12.40;6.50;;;-1.20;99.90;;;;;;5042629;28;20990;-52
2023/01/27 08:13:30;;;;;;;10.40;6.30;;;-1.20;99.90;;;;;;5045197;28;20954;-51
2023/01/27 08:16:00;;;;;;;12.07;6.77;;;-1.20;99.90;;;;;;5045609;28;21155;-53
2023/01/27 08:18:27;;;;;;;10.30;6.23;;;-1.10;99.90;;;;;;5032178;28;20961;-52
2023/01/27 08:20:54;;;;;;;13.27;6.00;;;-1.10;99.90;;;;;;5046524;28;20459;-52
2023/01/27 08:23:21;;;;;;;8.77;5.50;;;-1.10;99.90;;;;;;5029509;28;20950;-52
2023/01/27 08:25:51;;;;;;;11.53;6.50;;;-1.20;99.90;;;;;;5052534;28;20432;-53
2023/01/27 08:28:18;;;;;;;9.10;5.70;;;-1.20;99.90;;;;;;5032169;28;20440;-53
2023/01/27 08:30:43;;;;;;;10.63;6.00;;;-1.20;99.90;;;;;;5042492;28;20487;-52
2023/01/27 08:33:09;;;;;;;12.60;6.73;;;-1.20;99.90;;;;;;5040958;28;20946;-54
2023/01/27 08:35:37;;;;;;;11.30;6.20;;;-1.20;99.90;;;;;;5039803;28;20216;-51
2023/01/27 08:38:04;;;;;;;12.50;6.73;;;-1.10;99.90;;;;;;5043468;28;20242;-51
2023/01/27 08:40:30;;;;;;;10.23;6.00;;;-1.10;99.90;;;;;;5040634;28;20733;-53
2023/01/27 08:42:55;;;;;;;13.13;7.33;;;-1.10;99.90;;;;;;5047826;28;20939;-54
2023/01/27 08:45:21;;;;;;;10.73;6.63;;;-1.10;99.90;;;;;;5045726;28;20574;-52
2023/01/27 08:47:47;;;;;;;15.37;7.73;;;-1.10;99.90;;;;;;5044209;28;20189;-54
2023/01/27 08:50:13;;;;;;;12.10;7.07;;;-1.10;99.90;;;;;;5041401;28;20854;-53
2023/01/27 08:52:39;;;;;;;13.10;7.50;;;-1.10;99.90;;;;;;5039881;28;20170;-52
2023/01/27 08:55:05;;;;;;;9.73;5.20;;;-1.10;99.90;;;;;;5034979;28;20191;-53
2023/01/27 08:57:31;;;;;;;8.87;5.37;;;-1.10;99.90;;;;;;5048562;28;20534;-53
2023/01/27 08:59:57;;;;;;;6.83;4.67;;;-1.20;99.90;;;;;;5047199;28;20886;-52
2023/01/27 09:02:23;;;;;;;10.00;5.20;;;-1.20;99.90;;;;;;5043273;28;21282;-51
2023/01/27 09:04:50;;;;;;;9.37;5.70;;;-1.30;99.90;;;;;;5042218;28;20427;-53
2023/01/27 09:07:16;;;;;;;9.30;6.00;;;-1.20;99.90;;;;;;5027106;28;20431;-52
2023/01/27 09:09:44;;;;;;;10.70;5.80;;;-1.20;99.90;;;;;;5047700;28;20412;-53
2023/01/27 09:12:10;;;;;;;9.60;5.97;;;-1.20;99.90;;;;;;5029374;28;20439;-51
2023/01/27 09:14:35;;;;;;;7.57;4.70;;;-1.20;99.90;;;;;;5056351;28;20710;-54
2023/01/27 09:17:01;;;;;;;7.67;5.00;;;-1.20;99.90;;;;;;5062065;28;20708;-55
2023/01/27 09:19:27;;;;;;;10.03;4.80;;;-1.20;99.90;;;;;;5064459;28;20207;-55
2023/01/27 09:21:52;;;;;;;8.27;4.83;;;-1.20;99.90;;;;;;5052914;28;20267;-53
2023/01/27 09:24:19;;;;;;;9.67;5.07;;;-1.20;99.90;;;;;;5042968;28;20696;-53
2023/01/27 09:26:45;;;;;;;5.73;4.17;;;-1.20;99.90;;;;;;5036823;28;20268;-53
2023/01/27 09:29:11;;;;;;;7.47;4.47;;;-1.10;99.90;;;;;;5039579;28;21463;-53
2023/01/27 09:31:36;;;;;;;8.80;4.90;;;-1.10;99.90;;;;;;5045240;28;20455;-52
2023/01/27 09:34:03;;;;;;;7.80;4.40;;;-1.10;99.90;;;;;;5040453;28;20260;-52
2023/01/27 09:36:30;;;;;;;7.50;4.10;;;-1.10;99.90;;;;;;5038621;28;20204;-52
2023/01/27 09:39:03;;;;;;;5.03;3.67;;;-1.10;99.90;;;;;;5034631;28;20419;-53
2023/01/27 09:42:06;;;;;;;7.43;4.47;;;-1.10;99.90;;;;;;5039235;28;21020;-51
2023/01/27 09:45:05;;;;;;;6.90;3.90;;;-1.10;99.90;;;;;;5040469;28;20432;-55
2023/01/27 09:47:56;;;;;;;7.80;5.17;;;-1.10;99.90;;;;;;5043814;28;20487;-54
2023/01/27 09:50:51;;;;;;;6.90;4.70;;;-1.00;99.90;;;;;;5045634;28;20447;-51
2023/01/27 09:53:51;;;;;;;8.47;4.13;;;-1.00;99.90;;;;;;5062350;28;20431;-57
2023/01/27 09:56:20;;;;;;;4.87;4.00;;;-1.00;99.90;;;;;;5064022;28;20487;-55
2023/01/27 09:59:11;;;;;;;5.80;4.07;;;-1.00;99.90;;;;;;5066548;28;20435;-58
2023/01/27 10:01:49;;;;;;;7.33;4.40;;;-0.90;99.90;;;;;;5065301;28;20451;-58
2023/01/27 10:04:22;;;;;;;6.13;4.10;;;-0.90;99.90;;;;;;5051553;28;20446;-55
2023/01/27 10:06:53;;;;;;;9.07;4.70;;;-0.90;99.90;;;;;;5060643;28;20428;-51
2023/01/27 10:09:43;;;;;;;8.77;4.50;;;-0.90;99.90;;;;;;5057074;28;20888;-55
2023/01/27 10:12:12;;;;;;;8.97;5.10;;;-0.80;99.90;;;;;;5066594;28;20450;-57
2023/01/27 10:15:07;;;;;;;8.77;4.60;;;-0.80;99.90;;;;;;5062550;28;20427;-56
2023/01/27 10:17:44;;;;;;;7.83;4.97;;;-0.80;99.90;;;;;;5060985;28;20463;-59
2023/01/27 10:20:16;;;;;;;6.77;4.53;;;-0.70;99.90;;;;;;5056547;28;20433;-52
2023/01/27 10:22:44;;;;;;;9.93;4.10;;;-0.70;99.90;;;;;;5049235;28;20420;-53
2023/01/27 10:25:16;;;;;;;6.10;4.20;;;-0.70;99.90;;;;;;5037231;28;20805;-52
2023/01/27 10:27:47;;;;;;;7.60;5.03;;;-0.70;99.90;;;;;;5041783;28;20430;-52
2023/01/27 10:30:43;;;;;;;8.40;5.07;;;-0.70;99.90;;;;;;5036442;28;20419;-50
2023/01/27 10:33:16;;;;;;;7.83;5.00;;;-0.70;99.90;;;;;;5043265;28;20600;-51
2023/01/27 10:35:54;;;;;;;12.40;5.87;;;-0.60;99.90;;;;;;5037620;28;20424;-52
2023/01/27 10:38:38;;;;;;;18.60;8.40;;;-0.70;99.90;;;;;;5022713;28;20444;-53
2023/01/27 10:41:12;;;;;;;14.10;6.67;;;-0.70;99.90;;;;;;5041253;28;20459;-53
2023/01/27 10:44:06;;;;;;;10.50;5.50;;;-0.70;99.90;;;;;;5045839;28;20906;-54
2023/01/27 10:46:50;;;;;;;9.77;5.77;;;-0.70;99.90;;;;;;5040700;28;20990;-54
2023/01/27 10:49:22;;;;;;;7.50;4.60;;;-0.70;99.90;;;;;;5037899;28;20492;-52
2023/01/27 10:52:14;;;;;;;10.30;5.90;;;-0.70;99.90;;;;;;5039515;28;20447;-53
2023/01/27 10:54:56;;;;;;;11.77;6.63;;;-0.70;99.90;;;;;;5028999;28;20460;-53
2023/01/27 10:57:31;;;;;;;9.00;5.27;;;-0.70;99.90;;;;;;5039763;28;20570;-52
2023/01/27 11:00:05;;;;;;;10.50;5.67;;;-0.80;99.90;;;;;;5039802;28;21145;-55
2023/01/27 11:02:52;;;;;;;10.17;5.33;;;-0.90;99.90;;;;;;5042858;28;20523;-50
2023/01/27 11:05:23;;;;;;;11.33;5.80;;;-0.80;99.90;;;;;;5018742;28;20432;-51
2023/01/27 11:07:56;;;;;;;11.63;6.10;;;-0.90;99.90;;;;;;5025109;28;20853;-56
2023/01/27 11:10:24;;;;;;;10.87;6.03;;;-0.90;99.90;;;;;;5039899;28;20532;-52
2023/01/27 11:12:54;;;;;;;13.10;7.00;;;-0.80;99.90;;;;;;5040589;28;20564;-54
2023/01/27 11:15:28;;;;;;;11.93;6.23;;;-0.80;99.90;;;;;;5045948;28;20446;-54
2023/01/27 11:18:07;;;;;;;11.43;6.60;;;-0.80;99.90;;;;;;5045693;28;20537;-54
2023/01/27 11:20:38;;;;;;;10.13;6.23;;;-0.80;99.90;;;;;;5045875;28;20447;-53
2023/01/27 11:23:19;;;;;;;11.10;6.30;;;-0.80;99.90;;;;;;5043336;28;20535;-54
2023/01/27 11:25:54;;;;;;;11.27;5.87;;;-0.70;99.90;;;;;;5041616;28;21004;-51
2023/01/27 11:28:37;;;;;;;9.73;5.03;;;-0.70;99.90;;;;;;5039523;28;20427;-53
2023/01/27 11:31:33;;;;;;;10.10;6.00;;;-0.60;99.90;;;;;;5041475;28;21348;-54
2023/01/27 11:34:18;;;;;;;8.97;5.53;;;-0.60;99.90;;;;;;5045213;28;20971;-54
2023/01/27 11:36:44;;;;;;;6.43;5.10;;;-0.60;99.90;;;;;;5039991;28;20455;-53
2023/01/27 11:39:12;;;;;;;8.73;4.87;;;-0.60;99.90;;;;;;5031897;28;20991;-51
2023/01/27 11:41:42;;;;;;;8.00;5.00;;;-0.60;99.90;;;;;;5048729;28;20810;-50
2023/01/27 11:44:27;;;;;;;7.67;5.37;;;-0.60;99.90;;;;;;5045984;28;20431;-51
2023/01/27 11:46:55;;;;;;;6.33;4.40;;;-0.70;99.90;;;;;;5045258;28;20826;-52
2023/01/27 11:49:34;;;;;;;10.03;5.23;;;-0.70;99.90;;;;;;5042123;28;20552;-52
2023/01/27 11:52:13;;;;;;;10.20;5.37;;;-0.70;99.90;;;;;;5046934;28;20462;-53
2023/01/27 11:55:11;;;;;;;7.80;4.60;;;-0.70;99.90;;;;;;5043680;28;20428;-53
2023/01/27 11:57:43;;;;;;;7.17;5.03;;;-0.80;99.90;;;;;;5022093;28;20467;-53
2023/01/27 12:00:23;;;;;;;12.53;5.27;;;-0.80;99.90;;;;;;5050450;28;20434;-53
2023/01/27 12:03:13;;;;;;;9.10;5.17;;;-0.80;99.90;;;;;;5035082;28;20425;-52
2023/01/27 12:05:54;;;;;;;8.20;5.37;;;-0.80;99.90;;;;;;5039388;28;20434;-52
2023/01/27 12:08:55;;;;;;;8.63;5.20;;;-0.80;99.90;;;;;;5039778;28;20443;-52
2023/01/27 12:11:29;;;;;;;8.17;5.77;;;-0.80;99.90;;;;;;4937816;28;20503;-52
2023/01/27 12:14:00;;;;;;;13.97;6.80;;;-0.80;99.90;;;;;;5024483;28;20436;-53
2023/01/27 12:16:46;;;;;;;13.00;6.13;;;-0.80;99.90;;;;;;5050597;28;20471;-52
2023/01/27 12:19:36;;;;;;;11.63;6.83;;;-0.80;99.90;;;;;;5050634;28;20434;-53
2023/01/27 12:22:27;;;;;;;11.67;6.63;;;-0.80;99.90;;;;;;5038588;28;20758;-54
2023/01/27 12:24:57;;;;;;;15.17;7.10;;;-0.80;99.90;;;;;;5064550;28;20424;-53
2023/01/27 12:27:26;;;;;;;12.37;7.40;;;-0.90;99.90;;;;;;5040078;28;20493;-55
2023/01/27 12:30:00;;;;;;;14.63;8.57;;;-0.90;99.90;;;;;;5060634;28;20451;-60
2023/01/27 12:32:46;;;;;;;13.60;7.50;;;-0.90;99.90;;;;;;5038761;28;20732;-53
2023/01/27 12:35:35;;;;;;;16.93;7.47;;;-0.90;99.90;;;;;;5068036;28;20451;-55
2023/01/27 12:38:03;;;;;;;10.83;7.30;;;-0.90;99.90;;;;;;5067073;28;20456;-54
2023/01/27 12:40:31;;;;;;;13.50;8.03;;;-1.00;99.90;;;;;;5068513;28;20586;-55
2023/01/27 12:43:16;;;;;;;13.87;7.93;;;-0.90;99.90;;;;;;5037425;28;20463;-54
2023/01/27 12:45:43;;;;;;;16.83;8.73;;;-1.00;99.90;;;;;;5062149;28;20451;-56
2023/01/27 12:48:11;;;;;;;15.47;7.70;;;-0.90;99.90;;;;;;5063959;28;20450;-55
2023/01/27 12:50:39;;;;;;;13.87;8.30;;;-0.90;99.90;;;;;;5067379;28;20447;-59
2023/01/27 12:53:11;;;;;;;13.77;7.50;;;-0.90;99.90;;;;;;5045126;28;20431;-54
2023/01/27 12:56:00;;;;;;;16.17;7.90;;;-0.90;99.90;;;;;;5048963;28;20428;-51
2023/01/27 12:58:30;;;;;;;19.33;7.80;;;-0.90;99.90;;;;;;5023053;28;20463;-52
2023/01/27 13:00:58;;;;;;;13.47;7.70;;;-0.80;99.90;;;;;;5035956;28;20556;-52
2023/01/27 13:03:25;;;;;;;13.47;6.90;;;-0.80;99.90;;;;;;5041556;28;20532;-53
2023/01/27 13:05:56;;;;;;;11.93;6.93;;;-0.80;99.90;;;;;;5038903;28;20494;-53
2023/01/27 13:08:25;;;;;;;14.60;7.30;;;-0.90;99.90;;;;;;5045332;28;20502;-52
2023/01/27 13:10:59;;;;;;;13.80;7.00;;;-0.90;99.90;;;;;;5041037;28;20439;-53
2023/01/27 13:13:27;;;;;;;19.33;7.83;;;-0.90;99.90;;;;;;5040134;28;20497;-52
2023/01/27 13:16:02;;;;;;;15.80;7.20;;;-0.90;99.90;;;;;;5044543;28;20424;-52
2023/01/27 13:18:33;;;;;;;12.30;7.43;;;-1.00;99.90;;;;;;5025252;28;20438;-52
2023/01/27 13:21:12;;;;;;;14.57;6.87;;;-1.00;99.90;;;;;;5039899;28;20448;-53
2023/01/27 13:23:39;;;;;;;13.90;7.47;;;-1.00;99.90;;;;;;5036816;28;20806;-52
2023/01/27 13:26:08;;;;;;;13.80;7.17;;;-0.90;99.90;;;;;;5041554;28;21140;-52
2023/01/27 13:28:51;;;;;;;12.47;6.93;;;-0.90;99.90;;;;;;5035641;28;20436;-52
2023/01/27 13:31:20;;;;;;;11.50;6.30;;;-1.00;99.90;;;;;;5027565;28;20466;-51
2023/01/27 13:33:55;;;;;;;11.87;7.03;;;-1.00;99.90;;;;;;5044665;28;20431;-52